sensor_id;sensor_type;location;lat;lon;timestamp;P1;durP1;ratioP1;P2;durP2;ratioP2
45650;SDS011;31365;48.858;8.530;2022-08-23T00:02:22;2.63;;;2.42;;
45650;SDS011;31365;48.858;8.530;2022-08-23T00:04:52;4.70;;;2.97;;
45650;SDS011;31365;48.858;8.530;2022-08-23T00:07:37;3.45;;;2.53;;
45650;SDS011;31365;48.858;8.530;2022-08-23T00:10:09;3.40;;;2.88;;
45650;SDS011;31365;48.858;8.530;2022-08-23T00:12:42;3.05;;;2.45;;
45650;SDS011;31365;48.858;8.530;2022-08-23T00:15:13;4.88;;;2.92;;
45650;SDS011;31365;48.858;8.530;2022-08-23T00:17:45;5.40;;;3.20;;
45650;SDS011;31365;48.858;8.530;2022-08-23T00:20:16;2.97;;;2.45;;
45650;SDS011;31365;48.858;8.530;2022-08-23T00:22:46;3.08;;;2.78;;
45650;SDS011;31365;48.858;8.530;2022-08-23T00:25:15;4.05;;;2.53;;
45650;SDS011;31365;48.858;8.530;2022-08-23T00:27:44;4.93;;;3.20;;
45650;SDS011;31365;48.858;8.530;2022-08-23T00:30:13;4.30;;;2.97;;
45650;SDS011;31365;48.858;8.530;2022-08-23T00:32:43;3.03;;;2.63;;
45650;SDS011;31365;48.858;8.530;2022-08-23T00:35:13;3.83;;;2.85;;
45650;SDS011;31365;48.858;8.530;2022-08-23T00:37:55;4.28;;;2.75;;
45650;SDS011;31365;48.858;8.530;2022-08-23T00:40:49;5.45;;;2.72;;
45650;SDS011;31365;48.858;8.530;2022-08-23T00:43:22;6.20;;;3.08;;
45650;SDS011;31365;48.858;8.530;2022-08-23T00:46:30;4.00;;;2.63;;
45650;SDS011;31365;48.858;8.530;2022-08-23T00:49:27;4.20;;;2.85;;
45650;SDS011;31365;48.858;8.530;2022-08-23T00:52:00;5.20;;;2.88;;
45650;SDS011;31365;48.858;8.530;2022-08-23T00:54:34;3.72;;;2.63;;
45650;SDS011;31365;48.858;8.530;2022-08-23T00:57:08;2.78;;;2.55;;
45650;SDS011;31365;48.858;8.530;2022-08-23T00:59:40;4.50;;;2.85;;
45650;SDS011;31365;48.858;8.530;2022-08-23T01:02:09;3.00;;;2.53;;
45650;SDS011;31365;48.858;8.530;2022-08-23T01:04:39;5.10;;;2.90;;
45650;SDS011;31365;48.858;8.530;2022-08-23T01:07:18;5.65;;;3.00;;
45650;SDS011;31365;48.858;8.530;2022-08-23T01:10:06;3.17;;;2.75;;
45650;SDS011;31365;48.858;8.530;2022-08-23T01:12:46;3.38;;;3.08;;
45650;SDS011;31365;48.858;8.530;2022-08-23T01:15:25;3.75;;;2.97;;
45650;SDS011;31365;48.858;8.530;2022-08-23T01:18:02;2.78;;;2.30;;
45650;SDS011;31365;48.858;8.530;2022-08-23T01:20:37;3.53;;;3.13;;
45650;SDS011;31365;48.858;8.530;2022-08-23T01:23:28;3.33;;;2.85;;
45650;SDS011;31365;48.858;8.530;2022-08-23T01:26:07;8.85;;;3.05;;
45650;SDS011;31365;48.858;8.530;2022-08-23T01:28:37;3.00;;;2.70;;
45650;SDS011;31365;48.858;8.530;2022-08-23T01:31:12;4.15;;;2.90;;
45650;SDS011;31365;48.858;8.530;2022-08-23T01:33:49;3.20;;;2.90;;
45650;SDS011;31365;48.858;8.530;2022-08-23T01:36:25;3.90;;;2.85;;
45650;SDS011;31365;48.858;8.530;2022-08-23T01:38:56;3.90;;;2.40;;
45650;SDS011;31365;48.858;8.530;2022-08-23T01:41:25;3.35;;;2.70;;
45650;SDS011;31365;48.858;8.530;2022-08-23T01:43:54;2.67;;;2.30;;
45650;SDS011;31365;48.858;8.530;2022-08-23T01:46:25;3.15;;;2.53;;
45650;SDS011;31365;48.858;8.530;2022-08-23T01:48:54;4.60;;;2.35;;
45650;SDS011;31365;48.858;8.530;2022-08-23T01:51:27;3.20;;;2.50;;
45650;SDS011;31365;48.858;8.530;2022-08-23T01:53:58;3.15;;;2.13;;
45650;SDS011;31365;48.858;8.530;2022-08-23T01:56:27;3.50;;;2.47;;
45650;SDS011;31365;48.858;8.530;2022-08-23T01:59:06;2.97;;;2.70;;
45650;SDS011;31365;48.858;8.530;2022-08-23T02:01:44;5.68;;;2.80;;
45650;SDS011;31365;48.858;8.530;2022-08-23T02:04:15;4.35;;;3.08;;
45650;SDS011;31365;48.858;8.530;2022-08-23T02:06:44;2.55;;;2.28;;
45650;SDS011;31365;48.858;8.530;2022-08-23T02:09:19;3.80;;;2.58;;
45650;SDS011;31365;48.858;8.530;2022-08-23T02:11:53;2.88;;;2.20;;
45650;SDS011;31365;48.858;8.530;2022-08-23T02:14:22;3.10;;;2.80;;
45650;SDS011;31365;48.858;8.530;2022-08-23T02:16:54;4.43;;;2.58;;
45650;SDS011;31365;48.858;8.530;2022-08-23T02:19:30;4.28;;;2.67;;
45650;SDS011;31365;48.858;8.530;2022-08-23T02:22:01;2.45;;;2.25;;
45650;SDS011;31365;48.858;8.530;2022-08-23T02:24:32;4.38;;;2.70;;
45650;SDS011;31365;48.858;8.530;2022-08-23T02:27:03;4.07;;;2.42;;
45650;SDS011;31365;48.858;8.530;2022-08-23T02:29:37;5.68;;;2.65;;
45650;SDS011;31365;48.858;8.530;2022-08-23T02:32:09;3.38;;;2.67;;
45650;SDS011;31365;48.858;8.530;2022-08-23T02:34:40;3.42;;;2.70;;
45650;SDS011;31365;48.858;8.530;2022-08-23T02:37:23;3.78;;;2.90;;
45650;SDS011;31365;48.858;8.530;2022-08-23T02:39:53;2.92;;;2.63;;
45650;SDS011;31365;48.858;8.530;2022-08-23T02:42:21;3.72;;;3.00;;
45650;SDS011;31365;48.858;8.530;2022-08-23T02:44:50;3.00;;;2.70;;
45650;SDS011;31365;48.858;8.530;2022-08-23T02:47:18;3.45;;;2.28;;
45650;SDS011;31365;48.858;8.530;2022-08-23T02:50:00;4.47;;;3.05;;
45650;SDS011;31365;48.858;8.530;2022-08-23T02:52:28;2.92;;;2.63;;
45650;SDS011;31365;48.858;8.530;2022-08-23T02:54:58;3.45;;;2.40;;
45650;SDS011;31365;48.858;8.530;2022-08-23T02:57:27;2.92;;;2.60;;
45650;SDS011;31365;48.858;8.530;2022-08-23T03:00:00;4.90;;;2.85;;
45650;SDS011;31365;48.858;8.530;2022-08-23T03:02:29;3.22;;;2.92;;
45650;SDS011;31365;48.858;8.530;2022-08-23T03:04:58;2.92;;;2.72;;
45650;SDS011;31365;48.858;8.530;2022-08-23T03:07:27;5.07;;;2.90;;
45650;SDS011;31365;48.858;8.530;2022-08-23T03:09:56;3.65;;;3.25;;
45650;SDS011;31365;48.858;8.530;2022-08-23T03:12:29;3.20;;;2.70;;
45650;SDS011;31365;48.858;8.530;2022-08-23T03:14:58;4.05;;;3.13;;
45650;SDS011;31365;48.858;8.530;2022-08-23T03:17:27;3.58;;;2.75;;
45650;SDS011;31365;48.858;8.530;2022-08-23T03:19:56;3.00;;;2.80;;
45650;SDS011;31365;48.858;8.530;2022-08-23T03:22:24;3.05;;;2.85;;
45650;SDS011;31365;48.858;8.530;2022-08-23T03:24:53;3.05;;;2.70;;
45650;SDS011;31365;48.858;8.530;2022-08-23T03:27:32;4.10;;;3.20;;
45650;SDS011;31365;48.858;8.530;2022-08-23T03:30:12;3.33;;;2.65;;
45650;SDS011;31365;48.858;8.530;2022-08-23T03:32:53;3.92;;;3.15;;
45650;SDS011;31365;48.858;8.530;2022-08-23T03:35:21;4.25;;;2.80;;
45650;SDS011;31365;48.858;8.530;2022-08-23T03:37:49;2.85;;;2.65;;
45650;SDS011;31365;48.858;8.530;2022-08-23T03:40:21;2.80;;;2.53;;
45650;SDS011;31365;48.858;8.530;2022-08-23T03:42:52;3.17;;;2.88;;
45650;SDS011;31365;48.858;8.530;2022-08-23T03:45:23;3.70;;;3.10;;
45650;SDS011;31365;48.858;8.530;2022-08-23T03:47:51;3.63;;;2.70;;
45650;SDS011;31365;48.858;8.530;2022-08-23T03:50:20;3.70;;;3.10;;
45650;SDS011;31365;48.858;8.530;2022-08-23T03:52:49;5.85;;;2.70;;
45650;SDS011;31365;48.858;8.530;2022-08-23T03:55:18;4.80;;;3.00;;
45650;SDS011;31365;48.858;8.530;2022-08-23T03:57:48;3.00;;;2.40;;
45650;SDS011;31365;48.858;8.530;2022-08-23T04:00:20;3.22;;;2.92;;
45650;SDS011;31365;48.858;8.530;2022-08-23T04:02:51;3.88;;;2.83;;
45650;SDS011;31365;48.858;8.530;2022-08-23T04:05:20;3.13;;;2.72;;
45650;SDS011;31365;48.858;8.530;2022-08-23T04:07:49;3.40;;;2.40;;
45650;SDS011;31365;48.858;8.530;2022-08-23T04:10:20;4.47;;;2.42;;
45650;SDS011;31365;48.858;8.530;2022-08-23T04:12:51;3.47;;;2.22;;
45650;SDS011;31365;48.858;8.530;2022-08-23T04:15:21;4.15;;;3.72;;
45650;SDS011;31365;48.858;8.530;2022-08-23T04:17:50;3.50;;;2.97;;
45650;SDS011;31365;48.858;8.530;2022-08-23T04:20:20;4.93;;;3.00;;
45650;SDS011;31365;48.858;8.530;2022-08-23T04:22:54;3.47;;;2.97;;
45650;SDS011;31365;48.858;8.530;2022-08-23T04:25:26;6.13;;;2.78;;
45650;SDS011;31365;48.858;8.530;2022-08-23T04:28:02;4.47;;;2.70;;
45650;SDS011;31365;48.858;8.530;2022-08-23T04:30:33;3.80;;;2.58;;
45650;SDS011;31365;48.858;8.530;2022-08-23T04:33:03;4.85;;;3.75;;
45650;SDS011;31365;48.858;8.530;2022-08-23T04:35:38;4.13;;;3.00;;
45650;SDS011;31365;48.858;8.530;2022-08-23T04:38:08;3.85;;;2.70;;
45650;SDS011;31365;48.858;8.530;2022-08-23T04:40:52;4.82;;;3.22;;
45650;SDS011;31365;48.858;8.530;2022-08-23T04:43:40;4.40;;;3.33;;
45650;SDS011;31365;48.858;8.530;2022-08-23T04:46:13;4.45;;;2.58;;
45650;SDS011;31365;48.858;8.530;2022-08-23T04:48:45;4.97;;;2.80;;
45650;SDS011;31365;48.858;8.530;2022-08-23T04:51:16;4.10;;;2.67;;
45650;SDS011;31365;48.858;8.530;2022-08-23T04:53:45;3.22;;;2.20;;
45650;SDS011;31365;48.858;8.530;2022-08-23T04:56:32;3.47;;;2.90;;
45650;SDS011;31365;48.858;8.530;2022-08-23T04:59:01;3.42;;;2.60;;
45650;SDS011;31365;48.858;8.530;2022-08-23T05:01:32;3.25;;;2.15;;
45650;SDS011;31365;48.858;8.530;2022-08-23T05:04:01;4.05;;;3.05;;
45650;SDS011;31365;48.858;8.530;2022-08-23T05:06:33;3.63;;;2.40;;
45650;SDS011;31365;48.858;8.530;2022-08-23T05:09:03;3.05;;;2.55;;
45650;SDS011;31365;48.858;8.530;2022-08-23T05:11:33;3.25;;;2.95;;
45650;SDS011;31365;48.858;8.530;2022-08-23T05:14:02;4.32;;;2.67;;
45650;SDS011;31365;48.858;8.530;2022-08-23T05:16:33;10.40;;;3.20;;
45650;SDS011;31365;48.858;8.530;2022-08-23T05:19:07;4.53;;;2.92;;
45650;SDS011;31365;48.858;8.530;2022-08-23T05:21:41;4.28;;;2.45;;
45650;SDS011;31365;48.858;8.530;2022-08-23T05:24:10;3.75;;;2.47;;
45650;SDS011;31365;48.858;8.530;2022-08-23T05:26:41;4.80;;;2.50;;
45650;SDS011;31365;48.858;8.530;2022-08-23T05:29:09;4.45;;;2.85;;
45650;SDS011;31365;48.858;8.530;2022-08-23T05:31:44;4.97;;;3.45;;
45650;SDS011;31365;48.858;8.530;2022-08-23T05:34:15;6.03;;;3.38;;
45650;SDS011;31365;48.858;8.530;2022-08-23T05:36:51;9.02;;;4.47;;
45650;SDS011;31365;48.858;8.530;2022-08-23T05:39:37;6.28;;;3.20;;
45650;SDS011;31365;48.858;8.530;2022-08-23T05:42:09;6.82;;;5.82;;
45650;SDS011;31365;48.858;8.530;2022-08-23T05:44:42;5.38;;;4.88;;
45650;SDS011;31365;48.858;8.530;2022-08-23T05:47:15;5.72;;;4.47;;
45650;SDS011;31365;48.858;8.530;2022-08-23T05:50:09;10.45;;;3.13;;
45650;SDS011;31365;48.858;8.530;2022-08-23T05:52:37;6.90;;;3.40;;
45650;SDS011;31365;48.858;8.530;2022-08-23T05:55:07;5.00;;;3.20;;
45650;SDS011;31365;48.858;8.530;2022-08-23T05:57:36;5.35;;;4.85;;
45650;SDS011;31365;48.858;8.530;2022-08-23T06:00:06;10.48;;;9.48;;
45650;SDS011;31365;48.858;8.530;2022-08-23T06:02:46;8.30;;;6.60;;
45650;SDS011;31365;48.858;8.530;2022-08-23T06:05:17;6.32;;;4.60;;
45650;SDS011;31365;48.858;8.530;2022-08-23T06:07:48;4.30;;;3.45;;
45650;SDS011;31365;48.858;8.530;2022-08-23T06:10:19;7.28;;;3.53;;
45650;SDS011;31365;48.858;8.530;2022-08-23T06:12:54;4.47;;;3.28;;
45650;SDS011;31365;48.858;8.530;2022-08-23T06:15:23;4.25;;;3.10;;
45650;SDS011;31365;48.858;8.530;2022-08-23T06:17:53;3.03;;;2.80;;
45650;SDS011;31365;48.858;8.530;2022-08-23T06:20:21;3.67;;;3.00;;
45650;SDS011;31365;48.858;8.530;2022-08-23T06:23:10;3.80;;;3.40;;
45650;SDS011;31365;48.858;8.530;2022-08-23T06:25:40;5.38;;;2.78;;
45650;SDS011;31365;48.858;8.530;2022-08-23T06:28:16;5.90;;;2.90;;
45650;SDS011;31365;48.858;8.530;2022-08-23T06:30:52;3.67;;;2.83;;
45650;SDS011;31365;48.858;8.530;2022-08-23T06:33:32;2.92;;;2.45;;
45650;SDS011;31365;48.858;8.530;2022-08-23T06:36:23;5.05;;;3.08;;
45650;SDS011;31365;48.858;8.530;2022-08-23T06:39:12;3.38;;;2.33;;
45650;SDS011;31365;48.858;8.530;2022-08-23T06:41:56;3.83;;;2.80;;
45650;SDS011;31365;48.858;8.530;2022-08-23T06:44:28;2.58;;;2.33;;
45650;SDS011;31365;48.858;8.530;2022-08-23T06:47:25;3.20;;;2.65;;
45650;SDS011;31365;48.858;8.530;2022-08-23T06:49:55;2.70;;;2.38;;
45650;SDS011;31365;48.858;8.530;2022-08-23T06:52:45;2.45;;;2.15;;
45650;SDS011;31365;48.858;8.530;2022-08-23T06:55:34;4.63;;;2.92;;
45650;SDS011;31365;48.858;8.530;2022-08-23T06:58:21;3.40;;;2.40;;
45650;SDS011;31365;48.858;8.530;2022-08-23T07:01:07;3.20;;;2.40;;
45650;SDS011;31365;48.858;8.530;2022-08-23T07:04:04;4.75;;;2.67;;
45650;SDS011;31365;48.858;8.530;2022-08-23T07:06:54;3.33;;;2.78;;
45650;SDS011;31365;48.858;8.530;2022-08-23T07:09:24;3.67;;;2.45;;
45650;SDS011;31365;48.858;8.530;2022-08-23T07:11:54;2.60;;;2.40;;
45650;SDS011;31365;48.858;8.530;2022-08-23T07:14:23;4.07;;;2.65;;
45650;SDS011;31365;48.858;8.530;2022-08-23T07:16:54;2.20;;;2.00;;
45650;SDS011;31365;48.858;8.530;2022-08-23T07:19:28;2.88;;;2.63;;
45650;SDS011;31365;48.858;8.530;2022-08-23T07:22:01;2.50;;;2.30;;
45650;SDS011;31365;48.858;8.530;2022-08-23T07:24:32;3.42;;;2.60;;
45650;SDS011;31365;48.858;8.530;2022-08-23T07:27:02;3.65;;;2.33;;
45650;SDS011;31365;48.858;8.530;2022-08-23T07:29:53;2.63;;;2.28;;
45650;SDS011;31365;48.858;8.530;2022-08-23T07:32:22;2.70;;;2.38;;
45650;SDS011;31365;48.858;8.530;2022-08-23T07:34:53;4.80;;;2.42;;
45650;SDS011;31365;48.858;8.530;2022-08-23T07:37:24;4.32;;;3.30;;
45650;SDS011;31365;48.858;8.530;2022-08-23T07:39:53;3.63;;;2.42;;
45650;SDS011;31365;48.858;8.530;2022-08-23T07:42:24;4.18;;;2.70;;
45650;SDS011;31365;48.858;8.530;2022-08-23T07:44:54;3.75;;;2.38;;
45650;SDS011;31365;48.858;8.530;2022-08-23T07:47:25;3.83;;;2.30;;
45650;SDS011;31365;48.858;8.530;2022-08-23T07:49:57;4.07;;;2.97;;
45650;SDS011;31365;48.858;8.530;2022-08-23T07:52:29;3.70;;;2.65;;
45650;SDS011;31365;48.858;8.530;2022-08-23T07:54:57;4.55;;;3.17;;
45650;SDS011;31365;48.858;8.530;2022-08-23T07:57:46;4.18;;;2.78;;
45650;SDS011;31365;48.858;8.530;2022-08-23T08:00:26;4.93;;;2.70;;
45650;SDS011;31365;48.858;8.530;2022-08-23T08:03:06;8.02;;;2.58;;
45650;SDS011;31365;48.858;8.530;2022-08-23T08:05:55;3.30;;;2.72;;
45650;SDS011;31365;48.858;8.530;2022-08-23T08:08:27;5.10;;;2.50;;
45650;SDS011;31365;48.858;8.530;2022-08-23T08:10:55;4.45;;;2.58;;
45650;SDS011;31365;48.858;8.530;2022-08-23T08:13:24;4.32;;;2.42;;
45650;SDS011;31365;48.858;8.530;2022-08-23T08:15:52;4.57;;;2.53;;
45650;SDS011;31365;48.858;8.530;2022-08-23T08:18:25;4.25;;;2.80;;
45650;SDS011;31365;48.858;8.530;2022-08-23T08:21:12;5.40;;;2.50;;
45650;SDS011;31365;48.858;8.530;2022-08-23T08:23:58;5.40;;;2.35;;
45650;SDS011;31365;48.858;8.530;2022-08-23T08:26:48;3.22;;;2.30;;
45650;SDS011;31365;48.858;8.530;2022-08-23T08:29:16;3.83;;;2.95;;
45650;SDS011;31365;48.858;8.530;2022-08-23T08:31:45;3.28;;;2.80;;
45650;SDS011;31365;48.858;8.530;2022-08-23T08:34:19;4.55;;;2.72;;
45650;SDS011;31365;48.858;8.530;2022-08-23T08:36:49;5.13;;;2.80;;
45650;SDS011;31365;48.858;8.530;2022-08-23T08:39:25;2.90;;;2.60;;
45650;SDS011;31365;48.858;8.530;2022-08-23T08:42:02;4.82;;;2.30;;
45650;SDS011;31365;48.858;8.530;2022-08-23T08:44:52;3.72;;;2.95;;
45650;SDS011;31365;48.858;8.530;2022-08-23T08:47:35;2.63;;;2.30;;
45650;SDS011;31365;48.858;8.530;2022-08-23T08:50:14;3.25;;;2.58;;
45650;SDS011;31365;48.858;8.530;2022-08-23T08:52:59;2.65;;;2.33;;
45650;SDS011;31365;48.858;8.530;2022-08-23T08:55:53;3.35;;;2.72;;
45650;SDS011;31365;48.858;8.530;2022-08-23T08:58:37;3.83;;;2.88;;
45650;SDS011;31365;48.858;8.530;2022-08-23T09:01:17;4.00;;;2.90;;
45650;SDS011;31365;48.858;8.530;2022-08-23T09:03:56;4.90;;;2.90;;
45650;SDS011;31365;48.858;8.530;2022-08-23T09:06:27;3.67;;;2.80;;
45650;SDS011;31365;48.858;8.530;2022-08-23T09:09:10;5.60;;;3.10;;
45650;SDS011;31365;48.858;8.530;2022-08-23T09:12:00;3.40;;;2.70;;
45650;SDS011;31365;48.858;8.530;2022-08-23T09:14:51;3.40;;;2.70;;
45650;SDS011;31365;48.858;8.530;2022-08-23T09:17:46;3.10;;;2.53;;
45650;SDS011;31365;48.858;8.530;2022-08-23T09:20:24;4.10;;;2.30;;
45650;SDS011;31365;48.858;8.530;2022-08-23T09:23:01;3.72;;;2.35;;
45650;SDS011;31365;48.858;8.530;2022-08-23T09:25:37;4.07;;;2.75;;
45650;SDS011;31365;48.858;8.530;2022-08-23T09:28:14;4.38;;;2.45;;
45650;SDS011;31365;48.858;8.530;2022-08-23T09:30:44;2.97;;;2.20;;
45650;SDS011;31365;48.858;8.530;2022-08-23T09:33:20;7.00;;;2.70;;
45650;SDS011;31365;48.858;8.530;2022-08-23T09:36:03;3.15;;;2.60;;
45650;SDS011;31365;48.858;8.530;2022-08-23T09:38:49;3.33;;;2.55;;
45650;SDS011;31365;48.858;8.530;2022-08-23T09:41:23;3.65;;;2.67;;
45650;SDS011;31365;48.858;8.530;2022-08-23T09:43:58;5.18;;;2.60;;
45650;SDS011;31365;48.858;8.530;2022-08-23T09:46:28;3.28;;;2.70;;
45650;SDS011;31365;48.858;8.530;2022-08-23T09:49:20;3.63;;;2.92;;
45650;SDS011;31365;48.858;8.530;2022-08-23T09:51:58;3.75;;;2.92;;
45650;SDS011;31365;48.858;8.530;2022-08-23T09:54:56;4.53;;;2.20;;
45650;SDS011;31365;48.858;8.530;2022-08-23T09:57:30;4.57;;;2.47;;
45650;SDS011;31365;48.858;8.530;2022-08-23T10:00:18;4.03;;;2.33;;
45650;SDS011;31365;48.858;8.530;2022-08-23T10:02:52;5.13;;;2.80;;
45650;SDS011;31365;48.858;8.530;2022-08-23T10:05:28;4.22;;;2.50;;
45650;SDS011;31365;48.858;8.530;2022-08-23T10:08:07;3.08;;;2.72;;
45650;SDS011;31365;48.858;8.530;2022-08-23T10:10:41;4.10;;;2.40;;
45650;SDS011;31365;48.858;8.530;2022-08-23T10:13:24;5.53;;;2.20;;
45650;SDS011;31365;48.858;8.530;2022-08-23T10:15:57;2.55;;;2.35;;
45650;SDS011;31365;48.858;8.530;2022-08-23T10:18:53;6.05;;;2.40;;
45650;SDS011;31365;48.858;8.530;2022-08-23T10:21:38;3.90;;;2.47;;
45650;SDS011;31365;48.858;8.530;2022-08-23T10:24:15;3.97;;;2.63;;
45650;SDS011;31365;48.858;8.530;2022-08-23T10:27:00;4.85;;;2.45;;
45650;SDS011;31365;48.858;8.530;2022-08-23T10:30:01;4.50;;;2.83;;
45650;SDS011;31365;48.858;8.530;2022-08-23T10:32:40;2.67;;;2.05;;
45650;SDS011;31365;48.858;8.530;2022-08-23T10:35:26;3.63;;;2.10;;
45650;SDS011;31365;48.858;8.530;2022-08-23T10:38:05;2.42;;;2.20;;
45650;SDS011;31365;48.858;8.530;2022-08-23T10:41:00;6.60;;;2.55;;
45650;SDS011;31365;48.858;8.530;2022-08-23T10:44:01;5.35;;;2.17;;
45650;SDS011;31365;48.858;8.530;2022-08-23T10:46:56;3.08;;;2.00;;
45650;SDS011;31365;48.858;8.530;2022-08-23T10:49:45;2.35;;;1.92;;
45650;SDS011;31365;48.858;8.530;2022-08-23T10:52:21;3.17;;;1.90;;
45650;SDS011;31365;48.858;8.530;2022-08-23T10:54:56;10.77;;;2.80;;
45650;SDS011;31365;48.858;8.530;2022-08-23T10:57:43;10.25;;;3.38;;
45650;SDS011;31365;48.858;8.530;2022-08-23T11:00:16;5.68;;;2.17;;
45650;SDS011;31365;48.858;8.530;2022-08-23T11:02:49;4.95;;;2.40;;
45650;SDS011;31365;48.858;8.530;2022-08-23T11:05:29;3.60;;;2.17;;
45650;SDS011;31365;48.858;8.530;2022-08-23T11:11:03;5.72;;;2.70;;
45650;SDS011;31365;48.858;8.530;2022-08-23T11:13:33;4.55;;;1.92;;
45650;SDS011;31365;48.858;8.530;2022-08-23T11:16:04;3.42;;;2.40;;
45650;SDS011;31365;48.858;8.530;2022-08-23T11:18:48;2.83;;;2.00;;
45650;SDS011;31365;48.858;8.530;2022-08-23T11:21:43;3.53;;;2.13;;
45650;SDS011;31365;48.858;8.530;2022-08-23T11:24:30;2.55;;;1.85;;
45650;SDS011;31365;48.858;8.530;2022-08-23T11:27:32;4.77;;;2.03;;
45650;SDS011;31365;48.858;8.530;2022-08-23T11:33:16;2.20;;;2.00;;
45650;SDS011;31365;48.858;8.530;2022-08-23T11:35:53;3.42;;;1.88;;
45650;SDS011;31365;48.858;8.530;2022-08-23T11:41:33;2.08;;;1.75;;
45650;SDS011;31365;48.858;8.530;2022-08-23T11:44:32;6.35;;;2.15;;
45650;SDS011;31365;48.858;8.530;2022-08-23T11:47:09;4.28;;;1.80;;
45650;SDS011;31365;48.858;8.530;2022-08-23T11:49:43;2.45;;;1.85;;
45650;SDS011;31365;48.858;8.530;2022-08-23T11:52:44;4.57;;;2.03;;
45650;SDS011;31365;48.858;8.530;2022-08-23T11:55:38;3.00;;;1.83;;
45650;SDS011;31365;48.858;8.530;2022-08-23T11:58:43;2.25;;;1.67;;
45650;SDS011;31365;48.858;8.530;2022-08-23T12:01:36;6.18;;;2.20;;
45650;SDS011;31365;48.858;8.530;2022-08-23T12:04:08;2.40;;;1.75;;
45650;SDS011;31365;48.858;8.530;2022-08-23T12:06:52;2.42;;;1.88;;
45650;SDS011;31365;48.858;8.530;2022-08-23T12:12:25;1.85;;;1.42;;
45650;SDS011;31365;48.858;8.530;2022-08-23T12:15:11;2.50;;;1.80;;
45650;SDS011;31365;48.858;8.530;2022-08-23T12:20:39;3.55;;;1.98;;
45650;SDS011;31365;48.858;8.530;2022-08-23T12:23:16;7.40;;;2.47;;
45650;SDS011;31365;48.858;8.530;2022-08-23T12:25:56;3.35;;;2.00;;
45650;SDS011;31365;48.858;8.530;2022-08-23T12:28:37;2.40;;;1.45;;
45650;SDS011;31365;48.858;8.530;2022-08-23T12:31:15;2.13;;;1.60;;
45650;SDS011;31365;48.858;8.530;2022-08-23T12:33:58;3.42;;;1.35;;
45650;SDS011;31365;48.858;8.530;2022-08-23T12:36:43;1.80;;;1.70;;
45650;SDS011;31365;48.858;8.530;2022-08-23T12:39:26;3.83;;;1.65;;
45650;SDS011;31365;48.858;8.530;2022-08-23T12:42:03;1.98;;;1.50;;
45650;SDS011;31365;48.858;8.530;2022-08-23T12:44:41;1.63;;;1.50;;
45650;SDS011;31365;48.858;8.530;2022-08-23T12:47:13;2.53;;;1.17;;
45650;SDS011;31365;48.858;8.530;2022-08-23T12:49:52;3.25;;;1.58;;
45650;SDS011;31365;48.858;8.530;2022-08-23T12:52:26;1.90;;;1.30;;
45650;SDS011;31365;48.858;8.530;2022-08-23T12:54:57;2.95;;;1.45;;
45650;SDS011;31365;48.858;8.530;2022-08-23T12:57:31;3.15;;;1.70;;
45650;SDS011;31365;48.858;8.530;2022-08-23T13:00:07;2.92;;;1.52;;
45650;SDS011;31365;48.858;8.530;2022-08-23T13:02:48;2.22;;;1.52;;
45650;SDS011;31365;48.858;8.530;2022-08-23T13:05:26;5.07;;;1.90;;
45650;SDS011;31365;48.858;8.530;2022-08-23T13:08:05;4.55;;;1.52;;
45650;SDS011;31365;48.858;8.530;2022-08-23T13:10:39;2.08;;;1.38;;
45650;SDS011;31365;48.858;8.530;2022-08-23T13:13:13;2.45;;;1.45;;
45650;SDS011;31365;48.858;8.530;2022-08-23T13:15:53;2.53;;;1.50;;
45650;SDS011;31365;48.858;8.530;2022-08-23T13:18:26;1.55;;;1.27;;
45650;SDS011;31365;48.858;8.530;2022-08-23T13:21:14;5.88;;;1.58;;
45650;SDS011;31365;48.858;8.530;2022-08-23T13:23:53;1.90;;;1.55;;
45650;SDS011;31365;48.858;8.530;2022-08-23T13:26:36;3.65;;;1.80;;
45650;SDS011;31365;48.858;8.530;2022-08-23T13:29:09;3.17;;;1.50;;
45650;SDS011;31365;48.858;8.530;2022-08-23T13:31:56;8.55;;;2.22;;
45650;SDS011;31365;48.858;8.530;2022-08-23T13:34:30;2.08;;;1.85;;
45650;SDS011;31365;48.858;8.530;2022-08-23T13:37:17;2.17;;;1.70;;
45650;SDS011;31365;48.858;8.530;2022-08-23T13:39:50;2.65;;;1.60;;
45650;SDS011;31365;48.858;8.530;2022-08-23T13:42:27;2.10;;;1.60;;
45650;SDS011;31365;48.858;8.530;2022-08-23T13:45:10;1.58;;;1.20;;
45650;SDS011;31365;48.858;8.530;2022-08-23T13:47:55;2.92;;;1.55;;
45650;SDS011;31365;48.858;8.530;2022-08-23T13:50:30;5.07;;;1.50;;
45650;SDS011;31365;48.858;8.530;2022-08-23T13:53:01;2.92;;;1.38;;
45650;SDS011;31365;48.858;8.530;2022-08-23T13:55:47;4.15;;;1.40;;
45650;SDS011;31365;48.858;8.530;2022-08-23T13:58:26;2.78;;;1.73;;
45650;SDS011;31365;48.858;8.530;2022-08-23T14:00:58;2.08;;;1.88;;
45650;SDS011;31365;48.858;8.530;2022-08-23T14:03:31;3.47;;;1.65;;
45650;SDS011;31365;48.858;8.530;2022-08-23T14:05:59;2.67;;;1.70;;
45650;SDS011;31365;48.858;8.530;2022-08-23T14:08:28;1.60;;;1.42;;
45650;SDS011;31365;48.858;8.530;2022-08-23T14:10:57;1.58;;;1.30;;
45650;SDS011;31365;48.858;8.530;2022-08-23T14:13:27;2.47;;;1.38;;
45650;SDS011;31365;48.858;8.530;2022-08-23T14:15:58;2.15;;;1.50;;
45650;SDS011;31365;48.858;8.530;2022-08-23T14:18:53;2.67;;;1.40;;
45650;SDS011;31365;48.858;8.530;2022-08-23T14:21:43;4.38;;;1.80;;
45650;SDS011;31365;48.858;8.530;2022-08-23T14:24:12;2.85;;;1.35;;
45650;SDS011;31365;48.858;8.530;2022-08-23T14:26:41;5.03;;;1.90;;
45650;SDS011;31365;48.858;8.530;2022-08-23T14:29:17;2.58;;;1.35;;
45650;SDS011;31365;48.858;8.530;2022-08-23T14:31:48;2.92;;;1.42;;
45650;SDS011;31365;48.858;8.530;2022-08-23T14:34:19;2.47;;;1.30;;
45650;SDS011;31365;48.858;8.530;2022-08-23T14:36:48;4.38;;;1.63;;
45650;SDS011;31365;48.858;8.530;2022-08-23T14:39:39;1.88;;;1.50;;
45650;SDS011;31365;48.858;8.530;2022-08-23T14:42:07;2.22;;;1.60;;
45650;SDS011;31365;48.858;8.530;2022-08-23T14:44:36;2.47;;;1.40;;
45650;SDS011;31365;48.858;8.530;2022-08-23T14:47:05;2.15;;;1.60;;
45650;SDS011;31365;48.858;8.530;2022-08-23T14:49:35;1.45;;;1.35;;
45650;SDS011;31365;48.858;8.530;2022-08-23T14:52:04;3.42;;;1.65;;
45650;SDS011;31365;48.858;8.530;2022-08-23T14:54:33;1.67;;;1.50;;
45650;SDS011;31365;48.858;8.530;2022-08-23T14:57:03;2.45;;;1.20;;
45650;SDS011;31365;48.858;8.530;2022-08-23T14:59:32;4.55;;;1.60;;
45650;SDS011;31365;48.858;8.530;2022-08-23T15:02:01;2.13;;;1.50;;
45650;SDS011;31365;48.858;8.530;2022-08-23T15:04:32;3.53;;;1.50;;
45650;SDS011;31365;48.858;8.530;2022-08-23T15:07:03;2.00;;;1.48;;
45650;SDS011;31365;48.858;8.530;2022-08-23T15:09:43;3.47;;;1.63;;
45650;SDS011;31365;48.858;8.530;2022-08-23T15:12:11;2.67;;;2.42;;
45650;SDS011;31365;48.858;8.530;2022-08-23T15:15:01;4.63;;;1.73;;
45650;SDS011;31365;48.858;8.530;2022-08-23T15:17:33;1.85;;;1.50;;
45650;SDS011;31365;48.858;8.530;2022-08-23T15:20:06;3.97;;;1.65;;
45650;SDS011;31365;48.858;8.530;2022-08-23T15:22:34;2.65;;;1.90;;
45650;SDS011;31365;48.858;8.530;2022-08-23T15:25:09;4.20;;;1.80;;
45650;SDS011;31365;48.858;8.530;2022-08-23T15:27:39;1.92;;;1.60;;
45650;SDS011;31365;48.858;8.530;2022-08-23T15:30:09;4.88;;;1.50;;
45650;SDS011;31365;48.858;8.530;2022-08-23T15:32:41;2.47;;;1.60;;
45650;SDS011;31365;48.858;8.530;2022-08-23T15:35:21;2.88;;;2.10;;
45650;SDS011;31365;48.858;8.530;2022-08-23T15:37:51;1.88;;;1.45;;
45650;SDS011;31365;48.858;8.530;2022-08-23T15:40:20;2.45;;;1.70;;
45650;SDS011;31365;48.858;8.530;2022-08-23T15:42:51;1.95;;;1.65;;
45650;SDS011;31365;48.858;8.530;2022-08-23T15:45:20;2.83;;;1.65;;
45650;SDS011;31365;48.858;8.530;2022-08-23T15:47:49;2.85;;;1.50;;
45650;SDS011;31365;48.858;8.530;2022-08-23T15:50:22;3.92;;;1.60;;
45650;SDS011;31365;48.858;8.530;2022-08-23T15:52:54;2.30;;;1.50;;
45650;SDS011;31365;48.858;8.530;2022-08-23T15:55:23;3.25;;;1.52;;
45650;SDS011;31365;48.858;8.530;2022-08-23T15:57:57;2.70;;;1.75;;